createdAt,value
2018-05-24T00:01:28.374Z,7.50
2018-05-24T00:06:30.945Z,7.20
2018-05-24T00:11:35.426Z,5.53
2018-05-24T00:16:38.580Z,5.23
2018-05-24T00:21:43.245Z,5.67
2018-05-24T00:26:47.034Z,5.07
2018-05-24T00:31:52.402Z,5.40
2018-05-24T00:36:56.514Z,6.80
2018-05-24T00:41:59.121Z,7.60
2018-05-24T00:47:02.135Z,7.57
2018-05-24T00:52:04.726Z,7.97
2018-05-24T00:57:07.320Z,8.60
2018-05-24T01:02:09.936Z,8.00
2018-05-24T01:07:13.000Z,8.00
2018-05-24T01:12:18.371Z,8.00
2018-05-24T01:17:20.973Z,8.20
2018-05-24T01:22:23.565Z,8.93
2018-05-24T01:27:26.646Z,8.80
2018-05-24T01:32:29.865Z,9.20
2018-05-24T01:37:45.084Z,8.90
2018-05-24T01:42:50.169Z,9.20
2018-05-24T01:47:59.776Z,8.33
2018-05-24T01:53:18.271Z,7.17
2018-05-24T01:58:26.945Z,7.80
2018-05-24T02:03:29.621Z,8.30
2018-05-24T02:08:32.493Z,8.10
2018-05-24T02:13:35.520Z,9.30
2018-05-24T02:18:38.075Z,9.30
2018-05-24T02:23:40.631Z,10.10
2018-05-24T02:28:43.210Z,10.37
2018-05-24T02:33:45.794Z,11.37
2018-05-24T02:38:49.312Z,11.20
2018-05-24T02:43:53.298Z,11.80
2018-05-24T02:48:56.232Z,13.20
2018-05-24T02:53:59.575Z,12.90
2018-05-24T02:59:04.122Z,11.70
2018-05-24T03:04:06.697Z,11.77
2018-05-24T03:09:09.293Z,11.10
2018-05-24T03:14:12.171Z,11.80
2018-05-24T03:19:17.700Z,10.97
2018-05-24T03:24:20.285Z,10.90
2018-05-24T03:29:23.446Z,11.23
2018-05-24T03:34:26.350Z,10.93
2018-05-24T03:39:29.173Z,10.47
2018-05-24T03:44:33.317Z,9.63
2018-05-24T03:49:35.928Z,9.90
2018-05-24T03:54:39.270Z,12.03
2018-05-24T04:05:19.852Z,11.07
2018-05-24T04:10:24.509Z,11.97
2018-05-24T04:15:27.853Z,11.00
2018-05-24T04:20:31.028Z,10.97
2018-05-24T04:25:34.363Z,12.07
2018-05-24T04:30:40.714Z,10.97
2018-05-24T04:35:43.297Z,11.43
2018-05-24T04:40:45.868Z,11.03
2018-05-24T04:45:48.436Z,12.30
2018-05-24T04:50:52.049Z,13.23
2018-05-24T04:55:54.953Z,11.97
2018-05-24T05:00:57.528Z,12.50
2018-05-24T05:06:00.096Z,13.50
2018-05-24T05:11:02.691Z,14.17
2018-05-24T05:16:06.005Z,12.33
2018-05-24T05:21:11.176Z,12.43
2018-05-24T05:26:13.978Z,13.13
2018-05-24T05:31:19.733Z,12.70
2018-05-24T05:36:25.078Z,13.90
2018-05-24T05:41:28.767Z,12.00
2018-05-24T05:46:31.316Z,12.53
2018-05-24T05:51:33.901Z,12.10
2018-05-24T05:56:37.315Z,11.60
2018-05-24T06:01:40.709Z,11.93
2018-05-24T06:06:43.792Z,13.10
2018-05-24T06:11:47.229Z,11.07
2018-05-24T06:16:49.819Z,11.17
2018-05-24T06:21:52.393Z,11.50
2018-05-24T06:26:55.605Z,10.87
2018-05-24T06:31:59.310Z,11.27
2018-05-24T06:37:01.894Z,10.20
2018-05-24T06:42:04.829Z,9.70
2018-05-24T06:47:09.877Z,10.50
2018-05-24T06:52:12.938Z,10.33
2018-05-24T06:57:15.896Z,10.37
2018-05-24T07:02:18.911Z,9.90
2018-05-24T07:07:21.511Z,10.47
2018-05-24T07:12:24.553Z,10.63
2018-05-24T07:17:27.139Z,12.37
2018-05-24T07:22:29.905Z,12.40
2018-05-24T07:27:32.912Z,12.40
2018-05-24T07:32:35.497Z,11.17
2018-05-24T07:37:38.941Z,10.97
2018-05-24T07:42:41.459Z,10.80
2018-05-24T07:47:44.620Z,11.30
2018-05-24T07:52:48.319Z,11.53
2018-05-24T07:57:50.896Z,11.47
2018-05-24T08:02:53.480Z,10.93
2018-05-24T08:07:56.306Z,10.20
2018-05-24T08:12:59.313Z,11.13
2018-05-24T08:18:01.894Z,11.23
2018-05-24T08:23:04.904Z,11.70
2018-05-24T08:28:08.049Z,10.60
2018-05-24T08:33:11.110Z,10.20
2018-05-24T08:38:15.004Z,9.63
2018-05-24T08:43:17.603Z,9.30
2018-05-24T08:48:21.595Z,10.10
2018-05-24T08:53:25.654Z,10.17
2018-05-24T08:58:28.856Z,9.50
2018-05-24T09:03:32.989Z,9.73
2018-05-24T09:08:36.381Z,10.17
2018-05-24T09:13:39.746Z,9.80
2018-05-24T09:18:43.529Z,9.00
2018-05-24T09:23:47.824Z,7.90
2018-05-24T09:28:50.406Z,8.70
2018-05-24T09:33:54.397Z,9.80
2018-05-24T09:38:56.980Z,10.57
2018-05-24T09:43:59.619Z,8.50
2018-05-24T09:49:02.471Z,9.77
2018-05-24T09:54:05.047Z,9.27
2018-05-24T09:59:10.158Z,8.60
2018-05-24T10:04:12.800Z,9.50
2018-05-24T10:09:16.140Z,9.60
2018-05-24T10:14:19.296Z,9.87
2018-05-24T10:19:24.377Z,9.57
2018-05-24T10:24:28.007Z,9.53
2018-05-24T10:29:32.692Z,9.33
2018-05-24T10:34:35.271Z,9.50
2018-05-24T10:39:38.099Z,10.10
2018-05-24T10:44:40.715Z,8.63
2018-05-24T10:49:43.647Z,9.03
2018-05-24T10:54:46.635Z,8.93
2018-05-24T10:59:49.222Z,8.20
2018-05-24T11:04:51.875Z,8.40
2018-05-24T11:09:56.316Z,7.00
2018-05-24T11:14:59.968Z,6.70
2018-05-24T11:20:03.145Z,7.43
2018-05-24T11:25:06.550Z,7.03
2018-05-24T11:30:09.885Z,5.43
2018-05-24T11:35:13.797Z,6.57
2018-05-24T11:40:17.157Z,6.00
2018-05-24T11:45:19.734Z,6.30
2018-05-24T11:50:24.198Z,7.07
2018-05-24T11:55:27.063Z,6.00
2018-05-24T12:00:31.097Z,5.90
2018-05-24T12:05:35.539Z,3.83
2018-05-24T12:10:38.878Z,1.93
2018-05-24T12:15:41.450Z,2.10
2018-05-24T12:20:47.392Z,3.77
2018-05-24T12:25:49.987Z,3.20
2018-05-24T12:30:52.578Z,3.00
2018-05-24T12:35:55.223Z,2.87
2018-05-24T12:40:58.596Z,2.90
2018-05-24T12:46:01.633Z,3.77
2018-05-24T12:51:04.992Z,3.30
2018-05-24T12:56:08.024Z,4.20
2018-05-24T13:01:13.189Z,4.93
2018-05-24T13:06:16.016Z,3.80
2018-05-24T13:11:19.073Z,3.00
2018-05-24T13:16:21.673Z,2.50
2018-05-24T13:21:25.028Z,2.47
2018-05-24T13:26:29.385Z,2.57
2018-05-24T13:31:34.458Z,3.80
2018-05-24T13:36:37.541Z,2.93
2018-05-24T13:41:40.104Z,2.07
2018-05-24T13:46:42.664Z,3.37
2018-05-24T13:51:46.465Z,2.60
2018-05-24T13:56:49.162Z,2.13
2018-05-24T14:01:51.790Z,2.37
2018-05-24T14:06:54.487Z,2.50
2018-05-24T14:11:57.066Z,2.63
2018-05-24T14:16:59.662Z,2.53
2018-05-24T14:22:03.011Z,2.20
2018-05-24T14:27:05.590Z,2.50
2018-05-24T14:32:08.925Z,1.80
2018-05-24T14:37:11.500Z,2.10
2018-05-24T14:42:14.211Z,2.60
2018-05-24T14:47:20.870Z,2.33
2018-05-24T14:52:23.815Z,2.20
2018-05-24T14:57:28.155Z,2.00
2018-05-24T15:02:30.680Z,2.10
2018-05-24T15:07:33.695Z,2.50
2018-05-24T15:12:36.541Z,3.30
2018-05-24T15:17:39.813Z,3.00
2018-05-24T15:22:42.387Z,2.23
2018-05-24T15:27:46.545Z,2.37
2018-05-24T15:32:49.529Z,2.20
2018-05-24T15:37:52.113Z,2.30
2018-05-24T15:42:56.935Z,2.40
2018-05-24T15:47:59.792Z,2.00
2018-05-24T15:53:02.665Z,2.60
2018-05-24T15:58:06.796Z,2.30
2018-05-24T16:03:10.152Z,2.20
2018-05-24T16:08:12.722Z,2.57
2018-05-24T16:13:17.892Z,1.87
2018-05-24T16:18:21.209Z,2.30
2018-05-24T16:23:23.785Z,2.27
2018-05-24T16:28:27.134Z,2.50
2018-05-24T16:33:30.013Z,2.80
2018-05-24T16:38:37.687Z,2.20
2018-05-24T16:43:40.261Z,2.30
2018-05-24T16:48:44.056Z,2.30
2018-05-24T16:53:47.737Z,2.30
2018-05-24T16:58:50.318Z,2.50
2018-05-24T17:03:53.285Z,2.30
2018-05-24T17:08:57.285Z,2.17
2018-05-24T17:14:03.474Z,2.27
2018-05-24T17:19:06.853Z,2.60
2018-05-24T17:24:11.944Z,2.50
2018-05-24T17:29:14.977Z,4.17
2018-05-24T17:34:18.357Z,15.90
2018-05-24T17:39:20.956Z,3.37
2018-05-24T17:44:26.571Z,2.50
2018-05-24T17:49:29.664Z,2.30
2018-05-24T17:54:34.377Z,2.43
2018-05-24T17:59:40.757Z,2.80
2018-05-24T18:04:43.634Z,2.60
2018-05-24T18:09:46.711Z,2.80
2018-05-24T18:14:49.626Z,2.70
2018-05-24T18:19:53.156Z,2.90
2018-05-24T18:24:55.802Z,4.67
2018-05-24T18:29:58.756Z,3.70
2018-05-24T18:35:02.277Z,3.17
2018-05-24T18:40:04.992Z,3.60
2018-05-24T18:45:08.542Z,12.70
2018-05-24T18:50:11.243Z,3.60
2018-05-24T18:55:13.985Z,3.53
2018-05-24T19:00:16.734Z,3.40
2018-05-24T19:05:19.402Z,2.93
2018-05-24T19:10:22.104Z,2.87
2018-05-24T19:15:28.387Z,2.93
2018-05-24T19:20:31.032Z,2.30
2018-05-24T19:25:35.369Z,2.60
2018-05-24T19:30:38.003Z,3.17
2018-05-24T19:35:43.037Z,2.67
2018-05-24T19:40:45.897Z,2.70
2018-05-24T19:45:48.496Z,2.50
2018-05-24T19:50:51.645Z,2.73
2018-05-24T19:55:54.242Z,2.83
2018-05-24T20:00:56.865Z,2.90
2018-05-24T20:05:59.742Z,2.90
2018-05-24T20:11:05.046Z,2.97
2018-05-24T20:16:08.176Z,4.10
2018-05-24T20:21:11.518Z,3.73
2018-05-24T20:26:14.749Z,3.07
2018-05-24T20:31:18.184Z,1.93
2018-05-24T20:36:21.313Z,4.30
2018-05-24T20:41:23.903Z,2.57
2018-05-24T20:46:26.729Z,2.70
2018-05-24T20:51:31.489Z,3.07
2018-05-24T20:56:34.815Z,3.43
2018-05-24T21:01:37.926Z,3.47
2018-05-24T21:06:41.161Z,3.10
2018-05-24T21:11:44.541Z,3.00
2018-05-24T21:16:47.873Z,2.90
2018-05-24T21:21:51.044Z,2.57
2018-05-24T21:26:53.934Z,2.87
2018-05-24T21:31:56.577Z,3.10
2018-05-24T21:36:59.918Z,3.03
2018-05-24T21:42:02.534Z,2.80
2018-05-24T21:47:05.540Z,2.70
2018-05-24T21:52:08.110Z,3.03
2018-05-24T21:57:10.705Z,3.60
2018-05-24T22:02:13.634Z,3.47
2018-05-24T22:07:16.390Z,4.60
2018-05-24T22:12:20.940Z,3.97
2018-05-24T22:17:24.423Z,4.60
2018-05-24T22:22:27.005Z,4.23
2018-05-24T22:27:30.245Z,3.93
2018-05-24T22:32:32.955Z,3.43
2018-05-24T22:37:37.209Z,3.30
2018-05-24T22:42:40.626Z,3.23
2018-05-24T22:47:44.893Z,3.10
2018-05-24T22:52:50.434Z,3.03
2018-05-24T22:57:54.242Z,3.17
2018-05-24T23:02:56.960Z,2.93
2018-05-24T23:08:00.897Z,3.10
2018-05-24T23:13:06.559Z,3.20
2018-05-24T23:18:09.903Z,2.90
2018-05-24T23:23:12.465Z,2.80
2018-05-24T23:28:15.047Z,3.03
2018-05-24T23:33:17.604Z,2.93
2018-05-24T23:38:20.172Z,3.20
2018-05-24T23:43:23.508Z,2.70
2018-05-24T23:48:26.539Z,2.80
2018-05-24T23:53:29.116Z,2.90
2018-05-24T23:58:31.676Z,2.93
